sensor_id;sensor_type;location;lat;lon;timestamp;temperature;humidity
43671;DHT22;29267;50.906;7.248;2022-12-20T00:01:14;8.00;99.90
43671;DHT22;29267;50.906;7.248;2022-12-20T00:03:42;8.00;99.90
43671;DHT22;29267;50.906;7.248;2022-12-20T00:06:09;8.00;99.90
43671;DHT22;29267;50.906;7.248;2022-12-20T00:08:36;8.10;99.90
43671;DHT22;29267;50.906;7.248;2022-12-20T00:11:03;8.10;99.90
43671;DHT22;29267;50.906;7.248;2022-12-20T00:13:29;8.10;99.90
43671;DHT22;29267;50.906;7.248;2022-12-20T00:16:20;8.10;99.90
43671;DHT22;29267;50.906;7.248;2022-12-20T00:18:46;8.10;99.90
43671;DHT22;29267;50.906;7.248;2022-12-20T00:21:13;8.20;99.90
43671;DHT22;29267;50.906;7.248;2022-12-20T00:23:39;8.20;99.90
43671;DHT22;29267;50.906;7.248;2022-12-20T00:26:08;8.20;99.90
43671;DHT22;29267;50.906;7.248;2022-12-20T00:28:34;8.20;99.90
43671;DHT22;29267;50.906;7.248;2022-12-20T00:31:00;8.30;99.90
43671;DHT22;29267;50.906;7.248;2022-12-20T00:33:26;8.30;99.90
43671;DHT22;29267;50.906;7.248;2022-12-20T00:35:54;8.30;99.90
43671;DHT22;29267;50.906;7.248;2022-12-20T00:38:21;8.20;99.90
43671;DHT22;29267;50.906;7.248;2022-12-20T00:40:47;8.20;99.90
43671;DHT22;29267;50.906;7.248;2022-12-20T00:43:13;8.20;99.90
43671;DHT22;29267;50.906;7.248;2022-12-20T00:45:38;8.30;99.90
43671;DHT22;29267;50.906;7.248;2022-12-20T00:48:04;8.30;99.90
43671;DHT22;29267;50.906;7.248;2022-12-20T00:50:30;8.30;99.90
43671;DHT22;29267;50.906;7.248;2022-12-20T00:52:55;8.20;99.90
43671;DHT22;29267;50.906;7.248;2022-12-20T00:55:21;8.30;99.90
43671;DHT22;29267;50.906;7.248;2022-12-20T00:57:46;8.40;99.90
43671;DHT22;29267;50.906;7.248;2022-12-20T01:00:12;8.40;99.90
43671;DHT22;29267;50.906;7.248;2022-12-20T01:02:38;8.30;99.90
43671;DHT22;29267;50.906;7.248;2022-12-20T01:05:04;8.40;99.90
43671;DHT22;29267;50.906;7.248;2022-12-20T01:07:30;8.20;99.90
43671;DHT22;29267;50.906;7.248;2022-12-20T01:09:57;8.20;99.90
43671;DHT22;29267;50.906;7.248;2022-12-20T01:12:23;8.20;99.90
43671;DHT22;29267;50.906;7.248;2022-12-20T01:14:48;8.10;99.90
43671;DHT22;29267;50.906;7.248;2022-12-20T01:17:14;8.00;99.90
43671;DHT22;29267;50.906;7.248;2022-12-20T01:19:39;8.00;99.90
43671;DHT22;29267;50.906;7.248;2022-12-20T01:22:05;8.00;99.90
43671;DHT22;29267;50.906;7.248;2022-12-20T01:24:30;8.00;99.90
43671;DHT22;29267;50.906;7.248;2022-12-20T01:26:56;8.00;99.90
43671;DHT22;29267;50.906;7.248;2022-12-20T01:29:22;8.00;99.90
43671;DHT22;29267;50.906;7.248;2022-12-20T01:31:47;8.00;99.90
43671;DHT22;29267;50.906;7.248;2022-12-20T01:34:13;7.90;99.90
43671;DHT22;29267;50.906;7.248;2022-12-20T01:36:38;7.90;99.90
43671;DHT22;29267;50.906;7.248;2022-12-20T01:39:13;7.80;99.90
43671;DHT22;29267;50.906;7.248;2022-12-20T01:41:40;7.80;99.90
43671;DHT22;29267;50.906;7.248;2022-12-20T01:46:52;7.80;99.90
43671;DHT22;29267;50.906;7.248;2022-12-20T01:49:28;7.70;99.90
43671;DHT22;29267;50.906;7.248;2022-12-20T01:51:59;7.70;99.90
43671;DHT22;29267;50.906;7.248;2022-12-20T01:56:58;7.60;99.90
43671;DHT22;29267;50.906;7.248;2022-12-20T01:59:25;7.70;99.90
43671;DHT22;29267;50.906;7.248;2022-12-20T02:01:51;7.70;99.90
43671;DHT22;29267;50.906;7.248;2022-12-20T02:04:17;7.70;99.90
43671;DHT22;29267;50.906;7.248;2022-12-20T02:06:42;7.70;99.90
43671;DHT22;29267;50.906;7.248;2022-12-20T02:09:08;7.70;99.90
43671;DHT22;29267;50.906;7.248;2022-12-20T02:14:14;7.70;99.90
43671;DHT22;29267;50.906;7.248;2022-12-20T02:19:55;7.70;99.90
43671;DHT22;29267;50.906;7.248;2022-12-20T02:22:28;7.70;99.90
43671;DHT22;29267;50.906;7.248;2022-12-20T02:25:27;7.70;99.90
43671;DHT22;29267;50.906;7.248;2022-12-20T02:30:48;7.70;99.90
43671;DHT22;29267;50.906;7.248;2022-12-20T02:33:15;7.70;99.90
43671;DHT22;29267;50.906;7.248;2022-12-20T02:35:42;7.70;99.90
43671;DHT22;29267;50.906;7.248;2022-12-20T02:38:30;7.70;99.90
43671;DHT22;29267;50.906;7.248;2022-12-20T02:41:36;7.70;99.90
43671;DHT22;29267;50.906;7.248;2022-12-20T02:44:08;7.70;99.90
43671;DHT22;29267;50.906;7.248;2022-12-20T02:46:55;7.80;99.90
43671;DHT22;29267;50.906;7.248;2022-12-20T02:49:26;7.80;99.90
43671;DHT22;29267;50.906;7.248;2022-12-20T02:51:54;7.90;99.90
43671;DHT22;29267;50.906;7.248;2022-12-20T02:54:21;8.00;99.90
43671;DHT22;29267;50.906;7.248;2022-12-20T02:56:56;7.90;99.90
43671;DHT22;29267;50.906;7.248;2022-12-20T02:59:29;7.90;99.90
43671;DHT22;29267;50.906;7.248;2022-12-20T03:01:56;7.90;99.90
43671;DHT22;29267;50.906;7.248;2022-12-20T03:04:25;7.90;99.90
43671;DHT22;29267;50.906;7.248;2022-12-20T03:06:59;8.00;99.90
43671;DHT22;29267;50.906;7.248;2022-12-20T03:09:25;7.90;99.90
43671;DHT22;29267;50.906;7.248;2022-12-20T03:11:51;7.90;99.90
43671;DHT22;29267;50.906;7.248;2022-12-20T03:14:17;7.90;99.90
43671;DHT22;29267;50.906;7.248;2022-12-20T03:16:43;7.90;99.90
43671;DHT22;29267;50.906;7.248;2022-12-20T03:19:09;7.80;99.90
43671;DHT22;29267;50.906;7.248;2022-12-20T03:21:34;7.80;99.90
43671;DHT22;29267;50.906;7.248;2022-12-20T03:24:00;7.80;99.90
43671;DHT22;29267;50.906;7.248;2022-12-20T03:26:25;7.80;99.90
43671;DHT22;29267;50.906;7.248;2022-12-20T03:28:51;7.80;99.90
43671;DHT22;29267;50.906;7.248;2022-12-20T03:31:16;7.80;99.90
43671;DHT22;29267;50.906;7.248;2022-12-20T03:33:42;7.80;99.90
43671;DHT22;29267;50.906;7.248;2022-12-20T03:36:08;7.80;99.90
43671;DHT22;29267;50.906;7.248;2022-12-20T03:38:33;7.80;99.90
43671;DHT22;29267;50.906;7.248;2022-12-20T03:40:59;7.80;99.90
43671;DHT22;29267;50.906;7.248;2022-12-20T03:43:24;7.80;99.90
43671;DHT22;29267;50.906;7.248;2022-12-20T03:45:50;7.80;99.90
43671;DHT22;29267;50.906;7.248;2022-12-20T03:48:15;7.90;99.90
43671;DHT22;29267;50.906;7.248;2022-12-20T03:50:41;7.90;99.90
43671;DHT22;29267;50.906;7.248;2022-12-20T03:53:07;7.90;99.90
43671;DHT22;29267;50.906;7.248;2022-12-20T03:55:32;7.90;99.90
43671;DHT22;29267;50.906;7.248;2022-12-20T03:57:58;7.90;99.90
43671;DHT22;29267;50.906;7.248;2022-12-20T04:00:24;7.90;99.90
43671;DHT22;29267;50.906;7.248;2022-12-20T04:02:50;7.90;99.90
43671;DHT22;29267;50.906;7.248;2022-12-20T04:05:16;7.90;99.90
43671;DHT22;29267;50.906;7.248;2022-12-20T04:07:42;7.90;99.90
43671;DHT22;29267;50.906;7.248;2022-12-20T04:10:10;8.00;99.90
43671;DHT22;29267;50.906;7.248;2022-12-20T04:12:36;8.00;99.90
43671;DHT22;29267;50.906;7.248;2022-12-20T04:15:01;8.00;99.90
43671;DHT22;29267;50.906;7.248;2022-12-20T04:17:27;7.90;99.90
43671;DHT22;29267;50.906;7.248;2022-12-20T04:19:52;7.90;99.90
43671;DHT22;29267;50.906;7.248;2022-12-20T04:22:18;7.90;99.90
43671;DHT22;29267;50.906;7.248;2022-12-20T04:24:43;7.90;99.90
43671;DHT22;29267;50.906;7.248;2022-12-20T04:27:09;7.90;99.90
43671;DHT22;29267;50.906;7.248;2022-12-20T04:29:35;7.90;99.90
43671;DHT22;29267;50.906;7.248;2022-12-20T04:32:00;7.90;99.90
43671;DHT22;29267;50.906;7.248;2022-12-20T04:34:26;7.90;99.90
43671;DHT22;29267;50.906;7.248;2022-12-20T04:36:52;8.00;99.90
43671;DHT22;29267;50.906;7.248;2022-12-20T04:39:17;8.00;99.90
43671;DHT22;29267;50.906;7.248;2022-12-20T04:41:43;8.00;99.90
43671;DHT22;29267;50.906;7.248;2022-12-20T04:44:08;8.00;99.90
43671;DHT22;29267;50.906;7.248;2022-12-20T04:46:34;8.00;99.90
43671;DHT22;29267;50.906;7.248;2022-12-20T04:48:59;8.00;99.90
43671;DHT22;29267;50.906;7.248;2022-12-20T04:51:26;8.00;99.90
43671;DHT22;29267;50.906;7.248;2022-12-20T04:53:51;8.00;99.90
43671;DHT22;29267;50.906;7.248;2022-12-20T04:56:21;8.00;99.90
43671;DHT22;29267;50.906;7.248;2022-12-20T04:58:49;8.00;99.90
43671;DHT22;29267;50.906;7.248;2022-12-20T05:01:16;8.00;99.90
43671;DHT22;29267;50.906;7.248;2022-12-20T05:03:42;8.00;99.90
43671;DHT22;29267;50.906;7.248;2022-12-20T05:06:08;8.00;99.90
43671;DHT22;29267;50.906;7.248;2022-12-20T05:08:34;8.00;99.90
43671;DHT22;29267;50.906;7.248;2022-12-20T05:11:01;8.00;99.90
43671;DHT22;29267;50.906;7.248;2022-12-20T05:13:27;8.00;99.90
43671;DHT22;29267;50.906;7.248;2022-12-20T05:15:54;8.10;99.90
43671;DHT22;29267;50.906;7.248;2022-12-20T05:18:20;8.00;99.90
43671;DHT22;29267;50.906;7.248;2022-12-20T05:20:46;8.00;99.90
43671;DHT22;29267;50.906;7.248;2022-12-20T05:23:12;8.00;99.90
43671;DHT22;29267;50.906;7.248;2022-12-20T05:25:57;8.00;99.90
43671;DHT22;29267;50.906;7.248;2022-12-20T05:28:41;7.90;99.90
43671;DHT22;29267;50.906;7.248;2022-12-20T05:31:07;7.90;99.90
43671;DHT22;29267;50.906;7.248;2022-12-20T05:33:33;8.00;99.90
43671;DHT22;29267;50.906;7.248;2022-12-20T05:35:58;8.00;99.90
43671;DHT22;29267;50.906;7.248;2022-12-20T05:38:24;8.00;99.90
43671;DHT22;29267;50.906;7.248;2022-12-20T05:40:50;8.00;99.90
43671;DHT22;29267;50.906;7.248;2022-12-20T05:43:17;8.00;99.90
43671;DHT22;29267;50.906;7.248;2022-12-20T05:45:50;8.00;99.90
43671;DHT22;29267;50.906;7.248;2022-12-20T05:48:17;8.00;99.90
43671;DHT22;29267;50.906;7.248;2022-12-20T05:50:44;7.90;99.90
43671;DHT22;29267;50.906;7.248;2022-12-20T05:53:11;8.00;99.90
43671;DHT22;29267;50.906;7.248;2022-12-20T05:55:37;7.90;99.90
43671;DHT22;29267;50.906;7.248;2022-12-20T05:58:05;7.90;99.90
43671;DHT22;29267;50.906;7.248;2022-12-20T06:00:31;7.90;99.90
43671;DHT22;29267;50.906;7.248;2022-12-20T06:02:57;7.90;99.90
43671;DHT22;29267;50.906;7.248;2022-12-20T06:05:22;8.00;99.90
43671;DHT22;29267;50.906;7.248;2022-12-20T06:07:48;8.00;99.90
43671;DHT22;29267;50.906;7.248;2022-12-20T06:10:13;8.10;99.90
43671;DHT22;29267;50.906;7.248;2022-12-20T06:12:39;8.10;99.90
43671;DHT22;29267;50.906;7.248;2022-12-20T06:15:05;8.00;99.90
43671;DHT22;29267;50.906;7.248;2022-12-20T06:17:30;8.10;99.90
43671;DHT22;29267;50.906;7.248;2022-12-20T06:19:56;8.00;99.90
43671;DHT22;29267;50.906;7.248;2022-12-20T06:22:21;8.10;99.90
43671;DHT22;29267;50.906;7.248;2022-12-20T06:24:47;8.20;99.90
43671;DHT22;29267;50.906;7.248;2022-12-20T06:27:13;8.10;99.90
43671;DHT22;29267;50.906;7.248;2022-12-20T06:29:38;8.10;99.90
43671;DHT22;29267;50.906;7.248;2022-12-20T06:32:04;8.10;99.90
43671;DHT22;29267;50.906;7.248;2022-12-20T06:34:31;8.10;99.90
43671;DHT22;29267;50.906;7.248;2022-12-20T06:36:56;8.20;99.90
43671;DHT22;29267;50.906;7.248;2022-12-20T06:39:22;8.10;99.90
43671;DHT22;29267;50.906;7.248;2022-12-20T06:41:47;8.20;99.90
43671;DHT22;29267;50.906;7.248;2022-12-20T06:44:13;8.20;99.90
43671;DHT22;29267;50.906;7.248;2022-12-20T06:46:39;8.20;99.90
43671;DHT22;29267;50.906;7.248;2022-12-20T06:49:04;8.20;99.90
43671;DHT22;29267;50.906;7.248;2022-12-20T06:51:30;8.30;99.90
43671;DHT22;29267;50.906;7.248;2022-12-20T06:53:55;8.30;99.90
43671;DHT22;29267;50.906;7.248;2022-12-20T06:56:21;8.30;99.90
43671;DHT22;29267;50.906;7.248;2022-12-20T06:58:46;8.20;99.90
43671;DHT22;29267;50.906;7.248;2022-12-20T07:01:12;8.20;99.90
43671;DHT22;29267;50.906;7.248;2022-12-20T07:03:38;8.20;99.90
43671;DHT22;29267;50.906;7.248;2022-12-20T07:06:04;8.20;99.90
43671;DHT22;29267;50.906;7.248;2022-12-20T07:08:30;8.20;99.90
43671;DHT22;29267;50.906;7.248;2022-12-20T07:10:57;8.20;99.90
43671;DHT22;29267;50.906;7.248;2022-12-20T07:13:27;8.20;99.90
43671;DHT22;29267;50.906;7.248;2022-12-20T07:15:58;8.20;99.90
43671;DHT22;29267;50.906;7.248;2022-12-20T07:18:24;8.20;99.90
43671;DHT22;29267;50.906;7.248;2022-12-20T07:20:49;8.20;99.90
43671;DHT22;29267;50.906;7.248;2022-12-20T07:23:15;8.20;99.90
43671;DHT22;29267;50.906;7.248;2022-12-20T07:25:40;8.20;99.90
43671;DHT22;29267;50.906;7.248;2022-12-20T07:28:06;8.20;99.90
43671;DHT22;29267;50.906;7.248;2022-12-20T07:30:31;8.20;99.90
43671;DHT22;29267;50.906;7.248;2022-12-20T07:32:57;8.10;99.90
43671;DHT22;29267;50.906;7.248;2022-12-20T07:35:23;8.10;99.90
43671;DHT22;29267;50.906;7.248;2022-12-20T07:37:48;8.00;99.90
43671;DHT22;29267;50.906;7.248;2022-12-20T07:40:14;8.00;99.90
43671;DHT22;29267;50.906;7.248;2022-12-20T07:42:40;8.00;99.90
43671;DHT22;29267;50.906;7.248;2022-12-20T07:45:06;8.00;99.90
43671;DHT22;29267;50.906;7.248;2022-12-20T07:47:32;7.90;99.90
43671;DHT22;29267;50.906;7.248;2022-12-20T07:50:01;8.00;99.90
43671;DHT22;29267;50.906;7.248;2022-12-20T07:52:27;8.10;99.90
43671;DHT22;29267;50.906;7.248;2022-12-20T07:54:57;8.10;99.90
43671;DHT22;29267;50.906;7.248;2022-12-20T07:57:50;8.10;99.90
43671;DHT22;29267;50.906;7.248;2022-12-20T08:00:17;8.20;99.90
43671;DHT22;29267;50.906;7.248;2022-12-20T08:05:22;8.30;99.90
43671;DHT22;29267;50.906;7.248;2022-12-20T08:07:48;8.30;99.90
43671;DHT22;29267;50.906;7.248;2022-12-20T08:10:16;8.40;99.90
43671;DHT22;29267;50.906;7.248;2022-12-20T08:12:44;8.40;99.90
43671;DHT22;29267;50.906;7.248;2022-12-20T08:15:12;8.50;99.90
43671;DHT22;29267;50.906;7.248;2022-12-20T08:17:38;8.50;99.90
43671;DHT22;29267;50.906;7.248;2022-12-20T08:20:04;8.40;99.90
43671;DHT22;29267;50.906;7.248;2022-12-20T08:22:31;8.40;99.90
43671;DHT22;29267;50.906;7.248;2022-12-20T08:24:56;8.40;99.90
43671;DHT22;29267;50.906;7.248;2022-12-20T08:27:22;8.40;99.90
43671;DHT22;29267;50.906;7.248;2022-12-20T08:29:48;8.40;99.90
43671;DHT22;29267;50.906;7.248;2022-12-20T08:32:14;8.40;99.90
43671;DHT22;29267;50.906;7.248;2022-12-20T08:34:40;8.40;99.90
43671;DHT22;29267;50.906;7.248;2022-12-20T08:37:06;8.40;99.90
43671;DHT22;29267;50.906;7.248;2022-12-20T08:39:32;8.50;99.90
43671;DHT22;29267;50.906;7.248;2022-12-20T08:41:57;8.50;99.90
43671;DHT22;29267;50.906;7.248;2022-12-20T08:44:23;8.60;99.90
43671;DHT22;29267;50.906;7.248;2022-12-20T08:46:49;8.60;99.90
43671;DHT22;29267;50.906;7.248;2022-12-20T08:49:15;8.70;99.90
43671;DHT22;29267;50.906;7.248;2022-12-20T08:51:41;8.70;99.90
43671;DHT22;29267;50.906;7.248;2022-12-20T08:54:06;8.70;99.90
43671;DHT22;29267;50.906;7.248;2022-12-20T08:56:32;8.70;99.90
43671;DHT22;29267;50.906;7.248;2022-12-20T08:58:58;8.70;99.90
43671;DHT22;29267;50.906;7.248;2022-12-20T09:01:24;8.70;99.90
43671;DHT22;29267;50.906;7.248;2022-12-20T09:03:51;8.70;99.90
43671;DHT22;29267;50.906;7.248;2022-12-20T09:06:19;8.70;99.90
43671;DHT22;29267;50.906;7.248;2022-12-20T09:08:45;8.70;99.90
43671;DHT22;29267;50.906;7.248;2022-12-20T09:11:20;8.60;99.90
43671;DHT22;29267;50.906;7.248;2022-12-20T09:13:48;8.60;99.90
43671;DHT22;29267;50.906;7.248;2022-12-20T09:16:17;8.60;99.90
43671;DHT22;29267;50.906;7.248;2022-12-20T09:18:43;8.70;99.90
43671;DHT22;29267;50.906;7.248;2022-12-20T09:21:12;8.70;99.90
43671;DHT22;29267;50.906;7.248;2022-12-20T09:23:38;8.60;99.90
43671;DHT22;29267;50.906;7.248;2022-12-20T09:26:09;8.60;99.90
43671;DHT22;29267;50.906;7.248;2022-12-20T09:28:34;8.60;99.90
43671;DHT22;29267;50.906;7.248;2022-12-20T09:31:01;8.60;99.90
43671;DHT22;29267;50.906;7.248;2022-12-20T09:33:28;8.60;99.90
43671;DHT22;29267;50.906;7.248;2022-12-20T09:35:55;8.70;99.90
43671;DHT22;29267;50.906;7.248;2022-12-20T09:38:21;8.70;99.90
43671;DHT22;29267;50.906;7.248;2022-12-20T09:40:49;8.70;99.90
43671;DHT22;29267;50.906;7.248;2022-12-20T09:43:16;8.70;99.90
43671;DHT22;29267;50.906;7.248;2022-12-20T09:45:44;8.80;99.90
43671;DHT22;29267;50.906;7.248;2022-12-20T09:48:38;8.80;99.90
43671;DHT22;29267;50.906;7.248;2022-12-20T09:54:12;8.90;99.90
43671;DHT22;29267;50.906;7.248;2022-12-20T09:56:49;8.90;99.90
43671;DHT22;29267;50.906;7.248;2022-12-20T09:59:19;8.90;99.90
43671;DHT22;29267;50.906;7.248;2022-12-20T10:01:47;8.90;99.90
43671;DHT22;29267;50.906;7.248;2022-12-20T10:04:27;8.90;99.90
43671;DHT22;29267;50.906;7.248;2022-12-20T10:20:56;9.10;99.90
43671;DHT22;29267;50.906;7.248;2022-12-20T10:26:10;9.10;99.90
43671;DHT22;29267;50.906;7.248;2022-12-20T10:28:37;9.10;99.90
43671;DHT22;29267;50.906;7.248;2022-12-20T10:31:11;9.20;99.90
43671;DHT22;29267;50.906;7.248;2022-12-20T10:33:38;9.10;99.90
43671;DHT22;29267;50.906;7.248;2022-12-20T10:38:53;9.00;99.90
43671;DHT22;29267;50.906;7.248;2022-12-20T10:41:25;9.00;99.90
43671;DHT22;29267;50.906;7.248;2022-12-20T10:43:59;8.90;99.90
43671;DHT22;29267;50.906;7.248;2022-12-20T10:47:19;9.00;99.90
43671;DHT22;29267;50.906;7.248;2022-12-20T10:57:21;8.90;99.90
43671;DHT22;29267;50.906;7.248;2022-12-20T11:02:29;8.90;99.90
43671;DHT22;29267;50.906;7.248;2022-12-20T11:05:01;8.90;99.90
43671;DHT22;29267;50.906;7.248;2022-12-20T11:07:30;9.00;99.90
43671;DHT22;29267;50.906;7.248;2022-12-20T11:09:59;9.00;99.90
43671;DHT22;29267;50.906;7.248;2022-12-20T11:12:25;9.00;99.90
43671;DHT22;29267;50.906;7.248;2022-12-20T11:15:10;9.10;99.90
43671;DHT22;29267;50.906;7.248;2022-12-20T11:17:40;9.10;99.90
43671;DHT22;29267;50.906;7.248;2022-12-20T11:23:39;9.00;99.90
43671;DHT22;29267;50.906;7.248;2022-12-20T11:37:26;9.10;99.90
43671;DHT22;29267;50.906;7.248;2022-12-20T11:42:51;9.20;99.90
43671;DHT22;29267;50.906;7.248;2022-12-20T11:56:45;9.00;99.90
43671;DHT22;29267;50.906;7.248;2022-12-20T11:59:14;9.00;99.90
43671;DHT22;29267;50.906;7.248;2022-12-20T12:01:48;9.00;99.90
43671;DHT22;29267;50.906;7.248;2022-12-20T12:06:52;9.10;99.90
43671;DHT22;29267;50.906;7.248;2022-12-20T12:09:35;9.10;99.90
43671;DHT22;29267;50.906;7.248;2022-12-20T12:12:23;9.20;99.90
43671;DHT22;29267;50.906;7.248;2022-12-20T12:23:35;9.30;99.90
43671;DHT22;29267;50.906;7.248;2022-12-20T12:26:08;9.30;99.90
43671;DHT22;29267;50.906;7.248;2022-12-20T12:28:35;9.30;99.90
43671;DHT22;29267;50.906;7.248;2022-12-20T12:31:08;9.30;99.90
43671;DHT22;29267;50.906;7.248;2022-12-20T12:33:59;9.30;99.90
43671;DHT22;29267;50.906;7.248;2022-12-20T12:36:31;9.30;99.90
43671;DHT22;29267;50.906;7.248;2022-12-20T12:47:54;9.40;99.90
43671;DHT22;29267;50.906;7.248;2022-12-20T12:50:36;9.50;99.90
43671;DHT22;29267;50.906;7.248;2022-12-20T12:53:20;9.50;99.90
43671;DHT22;29267;50.906;7.248;2022-12-20T12:55:51;9.50;99.90
43671;DHT22;29267;50.906;7.248;2022-12-20T13:00:57;9.50;99.90
43671;DHT22;29267;50.906;7.248;2022-12-20T13:09:21;9.40;99.90
43671;DHT22;29267;50.906;7.248;2022-12-20T13:20:24;9.20;99.90
43671;DHT22;29267;50.906;7.248;2022-12-20T13:33:46;9.20;99.90
43671;DHT22;29267;50.906;7.248;2022-12-20T13:43:49;9.30;99.90
43671;DHT22;29267;50.906;7.248;2022-12-20T13:46:25;9.30;99.90
43671;DHT22;29267;50.906;7.248;2022-12-20T13:48:55;9.30;99.90
43671;DHT22;29267;50.906;7.248;2022-12-20T13:51:24;9.30;99.90
43671;DHT22;29267;50.906;7.248;2022-12-20T13:54:07;9.30;99.90
43671;DHT22;29267;50.906;7.248;2022-12-20T13:56:47;9.40;99.90
43671;DHT22;29267;50.906;7.248;2022-12-20T13:59:27;9.40;99.90
43671;DHT22;29267;50.906;7.248;2022-12-20T14:01:58;9.40;99.90
43671;DHT22;29267;50.906;7.248;2022-12-20T14:04:37;9.40;99.90
43671;DHT22;29267;50.906;7.248;2022-12-20T14:07:04;9.40;99.90
43671;DHT22;29267;50.906;7.248;2022-12-20T14:09:33;9.40;99.90
43671;DHT22;29267;50.906;7.248;2022-12-20T14:12:13;9.40;99.90
43671;DHT22;29267;50.906;7.248;2022-12-20T14:14:43;9.40;99.90
43671;DHT22;29267;50.906;7.248;2022-12-20T14:17:25;9.30;99.90
43671;DHT22;29267;50.906;7.248;2022-12-20T14:20:30;9.30;99.90
43671;DHT22;29267;50.906;7.248;2022-12-20T14:23:05;9.30;99.90
43671;DHT22;29267;50.906;7.248;2022-12-20T14:25:53;9.30;99.90
43671;DHT22;29267;50.906;7.248;2022-12-20T14:30:56;9.20;99.90
43671;DHT22;29267;50.906;7.248;2022-12-20T14:33:36;9.20;99.90
43671;DHT22;29267;50.906;7.248;2022-12-20T14:36:21;9.20;99.90
43671;DHT22;29267;50.906;7.248;2022-12-20T14:38:51;9.20;99.90
43671;DHT22;29267;50.906;7.248;2022-12-20T14:41:31;9.20;99.90
43671;DHT22;29267;50.906;7.248;2022-12-20T14:44:20;9.20;99.90
43671;DHT22;29267;50.906;7.248;2022-12-20T14:47:29;9.20;99.90
43671;DHT22;29267;50.906;7.248;2022-12-20T14:49:37;9.20;99.90
43671;DHT22;29267;50.906;7.248;2022-12-20T14:52:15;9.30;99.90
43671;DHT22;29267;50.906;7.248;2022-12-20T14:54:44;9.30;99.90
43671;DHT22;29267;50.906;7.248;2022-12-20T15:02:45;9.30;99.90
43671;DHT22;29267;50.906;7.248;2022-12-20T15:08:15;9.20;99.90
43671;DHT22;29267;50.906;7.248;2022-12-20T15:10:46;9.20;99.90
43671;DHT22;29267;50.906;7.248;2022-12-20T15:13:17;9.20;99.90
43671;DHT22;29267;50.906;7.248;2022-12-20T15:15:44;9.20;99.90
43671;DHT22;29267;50.906;7.248;2022-12-20T15:18:14;9.20;99.90
43671;DHT22;29267;50.906;7.248;2022-12-20T15:20:41;9.20;99.90
43671;DHT22;29267;50.906;7.248;2022-12-20T15:23:18;9.20;99.90
43671;DHT22;29267;50.906;7.248;2022-12-20T15:25:45;9.20;99.90
43671;DHT22;29267;50.906;7.248;2022-12-20T15:28:15;9.20;99.90
43671;DHT22;29267;50.906;7.248;2022-12-20T15:30:41;9.10;99.90
43671;DHT22;29267;50.906;7.248;2022-12-20T15:33:12;9.10;99.90
43671;DHT22;29267;50.906;7.248;2022-12-20T15:35:39;9.10;99.90
43671;DHT22;29267;50.906;7.248;2022-12-20T15:38:05;9.10;99.90
43671;DHT22;29267;50.906;7.248;2022-12-20T15:40:30;9.10;99.90
43671;DHT22;29267;50.906;7.248;2022-12-20T15:42:56;9.10;99.90
43671;DHT22;29267;50.906;7.248;2022-12-20T15:45:22;9.10;99.90
43671;DHT22;29267;50.906;7.248;2022-12-20T15:47:48;9.00;99.90
43671;DHT22;29267;50.906;7.248;2022-12-20T15:50:14;9.00;99.90
43671;DHT22;29267;50.906;7.248;2022-12-20T15:52:40;9.00;99.90
43671;DHT22;29267;50.906;7.248;2022-12-20T15:55:07;8.90;99.90
43671;DHT22;29267;50.906;7.248;2022-12-20T15:57:33;8.90;99.90
43671;DHT22;29267;50.906;7.248;2022-12-20T15:59:59;8.90;99.90
43671;DHT22;29267;50.906;7.248;2022-12-20T16:02:28;8.90;99.90
43671;DHT22;29267;50.906;7.248;2022-12-20T16:04:55;8.90;99.90
43671;DHT22;29267;50.906;7.248;2022-12-20T16:07:21;8.90;99.90
43671;DHT22;29267;50.906;7.248;2022-12-20T16:09:46;8.90;99.90
43671;DHT22;29267;50.906;7.248;2022-12-20T16:12:13;8.90;99.90
43671;DHT22;29267;50.906;7.248;2022-12-20T16:14:40;8.90;99.90
43671;DHT22;29267;50.906;7.248;2022-12-20T16:17:11;8.90;99.90
43671;DHT22;29267;50.906;7.248;2022-12-20T16:19:37;8.90;99.90
43671;DHT22;29267;50.906;7.248;2022-12-20T16:22:02;9.00;99.90
43671;DHT22;29267;50.906;7.248;2022-12-20T16:24:28;9.00;99.90
43671;DHT22;29267;50.906;7.248;2022-12-20T16:26:53;9.00;99.90
43671;DHT22;29267;50.906;7.248;2022-12-20T16:29:20;9.00;99.90
43671;DHT22;29267;50.906;7.248;2022-12-20T16:31:46;9.00;99.90
43671;DHT22;29267;50.906;7.248;2022-12-20T16:34:15;9.00;99.90
43671;DHT22;29267;50.906;7.248;2022-12-20T16:36:41;9.00;99.90
43671;DHT22;29267;50.906;7.248;2022-12-20T16:39:07;9.00;99.90
43671;DHT22;29267;50.906;7.248;2022-12-20T16:41:37;9.00;99.90
43671;DHT22;29267;50.906;7.248;2022-12-20T16:44:04;9.00;99.90
43671;DHT22;29267;50.906;7.248;2022-12-20T16:46:31;9.00;99.90
43671;DHT22;29267;50.906;7.248;2022-12-20T16:48:58;9.00;99.90
43671;DHT22;29267;50.906;7.248;2022-12-20T16:53:54;9.10;99.90
43671;DHT22;29267;50.906;7.248;2022-12-20T16:56:20;9.10;99.90
43671;DHT22;29267;50.906;7.248;2022-12-20T16:58:46;9.10;99.90
43671;DHT22;29267;50.906;7.248;2022-12-20T17:01:14;9.10;99.90
43671;DHT22;29267;50.906;7.248;2022-12-20T17:03:42;9.00;99.90
43671;DHT22;29267;50.906;7.248;2022-12-20T17:06:09;9.10;99.90
43671;DHT22;29267;50.906;7.248;2022-12-20T17:08:36;9.10;99.90
43671;DHT22;29267;50.906;7.248;2022-12-20T17:11:01;9.00;99.90
43671;DHT22;29267;50.906;7.248;2022-12-20T17:13:27;9.10;99.90
43671;DHT22;29267;50.906;7.248;2022-12-20T17:15:53;9.10;99.90
43671;DHT22;29267;50.906;7.248;2022-12-20T17:18:19;9.10;99.90
43671;DHT22;29267;50.906;7.248;2022-12-20T17:20:44;9.10;99.90
43671;DHT22;29267;50.906;7.248;2022-12-20T17:23:12;9.10;99.90
43671;DHT22;29267;50.906;7.248;2022-12-20T17:25:40;9.00;99.90
43671;DHT22;29267;50.906;7.248;2022-12-20T17:28:06;9.00;99.90
43671;DHT22;29267;50.906;7.248;2022-12-20T17:30:31;9.10;99.90
43671;DHT22;29267;50.906;7.248;2022-12-20T17:32:57;9.10;99.90
43671;DHT22;29267;50.906;7.248;2022-12-20T17:35:28;9.10;99.90
43671;DHT22;29267;50.906;7.248;2022-12-20T17:37:57;9.10;99.90
43671;DHT22;29267;50.906;7.248;2022-12-20T17:40:25;9.20;99.90
43671;DHT22;29267;50.906;7.248;2022-12-20T17:42:52;9.20;99.90
43671;DHT22;29267;50.906;7.248;2022-12-20T17:45:31;9.20;99.90
43671;DHT22;29267;50.906;7.248;2022-12-20T17:47:58;9.20;99.90
43671;DHT22;29267;50.906;7.248;2022-12-20T17:50:23;9.20;99.90
43671;DHT22;29267;50.906;7.248;2022-12-20T17:52:50;9.20;99.90
43671;DHT22;29267;50.906;7.248;2022-12-20T17:55:24;9.20;99.90
43671;DHT22;29267;50.906;7.248;2022-12-20T17:57:52;9.20;99.90
43671;DHT22;29267;50.906;7.248;2022-12-20T18:00:29;9.20;99.90
43671;DHT22;29267;50.906;7.248;2022-12-20T18:02:55;9.20;99.90
43671;DHT22;29267;50.906;7.248;2022-12-20T18:05:22;9.20;99.90
43671;DHT22;29267;50.906;7.248;2022-12-20T18:07:52;9.20;99.90
43671;DHT22;29267;50.906;7.248;2022-12-20T18:10:19;9.20;99.90
43671;DHT22;29267;50.906;7.248;2022-12-20T18:12:45;9.10;99.90
43671;DHT22;29267;50.906;7.248;2022-12-20T18:15:11;9.10;99.90
43671;DHT22;29267;50.906;7.248;2022-12-20T18:17:37;9.10;99.90
43671;DHT22;29267;50.906;7.248;2022-12-20T18:20:04;9.10;99.90
43671;DHT22;29267;50.906;7.248;2022-12-20T18:22:32;9.10;99.90